Flight Track Log - Related Links

Times and Time Zones

All times are in EDT time to prevent confusion due to time zone crossing. See the DAL268 flight status page for this flight to view local times or setup timezone preferences in your user account.

Time Position Orientation Groundspeed Altitude Reporting Facility
EDT Latitude Longitude Course Direction KTS MPH feet Rate Location/Type
Fri 02:30:44 PM 37.6080 -122.3840 180° South  Level FlightAware ADS-B
Fri 02:32:41 PM 37.6070 -122.3840 180° South 18 Level FlightAware ADS-B
Fri 02:38:00 PM 37.8158 -122.1676 38° Northeast  Level FlightAware Approximate
Fri 02:41:00 PM 37.8282 -122.1551 38° Northeast  Level FlightAware Approximate
Fri 02:41:41 PM 37.6234 -122.3700 26° Northeast 166 191 200  Level FlightAware ADS-B
Fri 02:41:50 PM 37.6298 -122.3650 32° Northeast 164 189 500 2,308 Climbing FlightAware ADS-B
Fri 02:41:54 PM 37.6321 -122.3640 19° North 168 193 700 2,400 Climbing FlightAware ADS-B
Fri 02:42:00 PM 37.6358 -122.3600 41° Northeast 170 196 900 2,500 Climbing FlightAware ADS-B
Fri 02:42:06 PM 37.6392 -122.3560 43° Northeast 170 196 1,200 2,182 Climbing FlightAware ADS-B
Fri 02:42:22 PM 37.6483 -122.3440 46° Northeast 181 208 1,700 1,688 Climbing FlightAware ADS-B
Fri 02:42:38 PM 37.6579 -122.3310 47° Northeast 204 235 2,100 1,742 Climbing FlightAware ADS-B
Fri 02:42:53 PM 37.6684 -122.3170 47° Northeast 221 254 2,600 2,323 Climbing FlightAware ADS-B
Fri 02:43:09 PM 37.6797 -122.3030 44° Northeast 223 257 3,300 2,250 Climbing FlightAware ADS-B
Fri 02:43:25 PM 37.6920 -122.2860 48° Northeast 249 287 3,800 2,182 Climbing FlightAware ADS-B
Fri 02:43:42 PM 37.7062 -122.2670 47° Northeast 260 299 4,500 2,933 Climbing FlightAware ADS-B
Fri 02:44:10 PM 37.7286 -122.2360 48° Northeast 264 304 6,000 3,130 Climbing FlightAware ADS-B
Fri 02:44:28 PM 37.7439 -122.2160 46° Northeast 269 310 6,900 2,800 Climbing FlightAware ADS-B
Fri 02:44:40 PM 37.7562 -122.2030 40° Northeast 278 320 7,400 2,690 Climbing FlightAware ADS-B
Fri 02:44:57 PM 37.7742 -122.1860 37° Northeast 281 323 8,200 2,727 Climbing FlightAware ADS-B
Fri 02:45:13 PM 37.7906 -122.1700 38° Northeast 287 330 8,900 2,625 Climbing FlightAware ADS-B
Fri 02:45:29 PM 37.8070 -122.1540 38° Northeast 292 336 9,600 2,348 Climbing FlightAware ADS-B
Fri 02:45:59 PM 37.8412 -122.1220 36° Northeast 314 361 10,700 1,770 Climbing FlightAware ADS-B
Fri 02:46:30 PM 37.8796 -122.0860 36° Northeast 345 397 11,400 1,935 Climbing FlightAware ADS-B
Fri 02:47:01 PM 37.9191 -122.0490 36° Northeast 356 410 12,700 2,557 Climbing FlightAware ADS-B
Fri 02:47:31 PM 37.9597 -122.0110 36° Northeast 362 417 14,000 2,500 Climbing FlightAware ADS-B
Fri 02:48:01 PM 38.0011 -121.9720 37° Northeast 370 426 15,200 2,262 Climbing FlightAware ADS-B
Fri 02:48:32 PM 38.0439 -121.9310 37° Northeast 381 438 16,300 2,190 Climbing FlightAware ADS-B
Fri 02:49:04 PM 38.0892 -121.8890 36° Northeast 390 449 17,500 1,579 Climbing FlightAware ADS-B
Fri 02:50:26 PM 38.2120 -121.7730 37° Northeast 436 502 19,300 1,445 Climbing FlightAware ADS-B
Fri 02:51:21 PM 38.3050 -121.6840 37° Northeast 455 524 20,800 1,677 Climbing FlightAware ADS-B
Fri 02:51:59 PM 38.3690 -121.6230 37° Northeast 462 532 21,900 1,674 Climbing FlightAware ADS-B
Fri 02:52:47 PM 38.4490 -121.5370 40° Northeast 476 548 23,200 1,558 Climbing FlightAware ADS-B
Fri 02:53:16 PM 38.4906 -121.4730 50° Northeast 483 556 23,900 1,379 Climbing FlightAware ADS-B
Fri 02:54:14 PM 38.5696 -121.3370 53° Northeast 488 562 25,200 1,281 Climbing FlightAware ADS-B
Fri 02:54:45 PM 38.6109 -121.2650 54° Northeast 504 580 25,800 1,254 Climbing FlightAware ADS-B
Fri 02:55:21 PM 38.6618 -121.1770 53° Northeast 508 585 26,600 1,324 Climbing FlightAware ADS-B
Fri 02:55:53 PM 38.7060 -121.1000 54° Northeast 514 592 27,300 1,403 Climbing FlightAware ADS-B
Fri 02:56:38 PM 38.7708 -120.9880 53° Northeast 516 594 28,400 1,473 Climbing FlightAware ADS-B
Fri 02:57:43 PM 38.8620 -120.8300 53° Northeast 516 594 30,000 1,371 Climbing FlightAware ADS-B
Fri 02:58:23 PM 38.9180 -120.7330 53° Northeast 519 597 30,800 750 Climbing FlightAware ADS-B
Fri 02:59:03 PM 38.9760 -120.6340 53° Northeast 521 600 31,000 150 Climbing FlightAware ADS-B
Fri 02:59:43 PM 39.0320 -120.5360 54° Northeast 519 597 31,000  Level FlightAware ADS-B
Fri 03:00:28 PM 39.0980 -120.4200 54° Northeast 520 598 31,000  Level FlightAware ADS-B
Fri 03:01:11 PM 39.1580 -120.3170 53° Northeast 520 598 31,000  Level FlightAware ADS-B
Fri 03:02:06 PM 39.2110 -120.2230 54° Northeast 520 598 31,000 126 Level FlightAware ADS-B
Fri 03:02:46 PM 39.2670 -120.1240 54° Northeast 521 600 31,200 1,024 Climbing FlightAware ADS-B
Fri 03:03:28 PM 39.3290 -120.0150 54° Northeast 517 595 32,400 1,481 Climbing FlightAware ADS-B
Fri 03:04:07 PM 39.3850 -119.9170 54° Northeast 516 594 33,200 1,408 Climbing FlightAware ADS-B
Fri 03:05:06 PM 39.4710 -119.7640 54° Northeast 511 588 34,700 1,398 Climbing FlightAware ADS-B
Fri 03:05:50 PM 39.5330 -119.6520 54° Northeast 509 586 35,600 444 Climbing FlightAware ADS-B
Fri 03:06:40 PM 39.6010 -119.5320 54° Northeast 36,200 315 Climbing FlightAware ADS-B
Fri 03:10:17 PM 39.9150 -118.9630 54° Northeast 514 592 37,000 161 Climbing FlightAware ADS-B
Fri 03:11:39 PM 39.9900 -118.8260 54° Northeast 515 593 37,000  Level FlightAware ADS-B
Fri 03:12:18 PM 40.0830 -118.6550 55° Northeast 515 593 37,000  Level FlightAware ADS-B
Fri 03:13:34 PM 40.1580 -118.4700 62° Northeast 517 595 37,000  Level FlightAware ADS-B
Fri 03:14:09 PM 40.1870 -118.3850 66° East 517 595 37,000  Level FlightAware ADS-B
Fri 03:14:57 PM 40.2270 -118.2680 66° East 517 595 37,000  Level FlightAware ADS-B
Fri 03:15:46 PM 40.2670 -118.1490 66° East 517 595 37,000  Level FlightAware ADS-B
Fri 03:16:27 PM 40.3010 -118.0490 66° East 517 595 37,000  Level FlightAware ADS-B
Fri 03:17:15 PM 40.3410 -117.9320 66° East 517 595 37,000  Level FlightAware ADS-B
Fri 03:17:55 PM 40.3740 -117.8340 66° East 517 595 37,000  Level FlightAware ADS-B
Fri 03:18:35 PM 40.4070 -117.7370 66° East 517 595 37,000  Level FlightAware ADS-B
Fri 03:19:22 PM 40.4460 -117.6220 66° East 517 595 37,000  Level FlightAware ADS-B
Fri 03:19:59 PM 40.4760 -117.5320 66° East 517 595 37,000  Level FlightAware ADS-B
Fri 03:20:57 PM 40.5240 -117.3900 66° East 517 595 37,000  Level FlightAware ADS-B
Fri 03:21:46 PM 40.5650 -117.2700 66° East 517 595 37,000  Level FlightAware ADS-B
Fri 03:22:20 PM 40.5930 -117.1870 66° East 517 595 37,000  Level FlightAware ADS-B
Fri 03:23:11 PM 40.6164 -116.7464 66° East 520 598 37,000  Level Oakland Center
Fri 03:23:34 PM 40.6411 -116.6586 70° East 522 601 37,000  Level Salt Lake Center
Fri 03:24:36 PM 40.6878 -116.4856 70° East 522 601 37,000  Level Salt Lake Center
Fri 03:25:38 PM 40.7344 -116.3125 70° East 522 601 37,000  Level Salt Lake Center
Fri 03:26:41 PM 40.7892 -116.1094 70° East 524 603 37,000  Level Salt Lake Center
Fri 03:27:43 PM 40.8353 -115.9367 71° East 524 603 37,000  Level Salt Lake Center
Fri 03:28:44 PM 40.8881 -115.7344 71° East 522 601 37,000  Level Salt Lake Center
Fri 03:29:46 PM 40.9331 -115.5594 71° East 524 603 37,000  Level Salt Lake Center
Fri 03:30:48 PM 40.9858 -115.3567 71° East 522 601 37,000  Level Salt Lake Center
Fri 03:31:50 PM 41.0297 -115.1817 72° East 523 602 37,000  Level Salt Lake Center
Fri 03:32:52 PM 41.0811 -114.9772 71° East 524 603 37,000  Level Salt Lake Center
Fri 03:33:54 PM 41.1264 -114.7964 72° East 525 604 37,000  Level Salt Lake Center
Fri 03:34:56 PM 41.1731 -114.6117 71° East 527 606 37,000  Level Salt Lake Center
Fri 03:35:58 PM 41.2200 -114.4278 71° East 527 606 37,000  Level Salt Lake Center
Fri 03:37:00 PM 41.2642 -114.2422 72° East 528 608 37,000  Level Salt Lake Center
Fri 03:42:30 PM 41.4900 -113.1770 72° East 533 613 37,000  Level FlightAware ADS-B
Fri 03:42:51 PM 41.5060 -113.1210 69° East 534 615 37,000  Level FlightAware ADS-B
Fri 03:43:40 PM 41.5490 -112.9640 70° East 535 616 37,000  Level FlightAware ADS-B
Fri 03:44:17 PM 41.5760 -112.8620 70° East 534 615 37,000  Level FlightAware ADS-B
Fri 03:44:57 PM 41.6010 -112.7670 71° East 535 616 37,000  Level FlightAware ADS-B
Fri 03:45:44 PM 41.6500 -112.5800 71° East 534 615 37,000  Level FlightAware ADS-B
Fri 03:46:19 PM 41.6560 -112.5570 71° East 535 616 37,000  Level FlightAware ADS-B
Fri 03:47:24 PM 41.7020 -112.3850 70° East 535 616 37,000  Level FlightAware ADS-B
Fri 03:47:58 PM 41.7270 -112.2950 70° East 535 616 37,000  Level FlightAware ADS-B
Fri 03:48:47 PM 41.7620 -112.1660 70° East 535 616 37,000  Level FlightAware ADS-B
Fri 03:49:26 PM 41.7900 -112.0620 70° East 535 616 37,000  Level FlightAware ADS-B
Fri 03:50:13 PM 41.8240 -111.9370 70° East 535 616 37,000  Level FlightAware ADS-B
Fri 03:50:56 PM 41.8550 -111.8230 70° East 535 616 37,000  Level FlightAware ADS-B
Fri 03:51:42 PM 41.8880 -111.7010 70° East 535 616 37,000  Level FlightAware ADS-B
Fri 03:52:30 PM 41.9919 -111.3261 70° East 531 611 37,000  Level Salt Lake Center
Fri 03:53:32 PM 42.0417 -111.1394 70° East 530 610 37,000  Level Salt Lake Center
Fri 03:54:33 PM 42.0911 -110.9525 70° East 529 609 37,000  Level Salt Lake Center
Fri 03:55:35 PM 42.1378 -110.7736 71° East 531 611 37,000  Level Salt Lake Center
Fri 03:56:37 PM 42.1922 -110.5650 71° East 530 610 37,000  Level Salt Lake Center
Fri 03:57:39 PM 42.2389 -110.3847 71° East 530 610 37,000  Level Salt Lake Center
Fri 03:58:41 PM 42.2922 -110.1739 71° East 530 610 37,000  Level Salt Lake Center
Fri 03:59:43 PM 42.3381 -109.9931 71° East 531 611 37,000  Level Salt Lake Center
Fri 04:00:45 PM 42.3911 -109.7819 71° East 531 611 37,000  Level Salt Lake Center
Fri 04:01:47 PM 42.4369 -109.5994 71° East 532 612 37,000  Level Salt Lake Center
Fri 04:02:49 PM 42.4825 -109.4181 71° East 531 611 37,000  Level Salt Lake Center
Fri 04:03:51 PM 42.5353 -109.2061 71° East 531 611 37,000  Level Salt Lake Center
Fri 04:04:52 PM 42.5792 -109.0228 72° East 532 612 37,000  Level Salt Lake Center
Fri 04:05:54 PM 42.6311 -108.8108 72° East 529 609 37,000  Level Salt Lake Center
Fri 04:06:56 PM 42.6731 -108.6311 72° East 524 603 37,000  Level Salt Lake Center
Fri 04:07:58 PM 42.7244 -108.4192 72° East 528 608 37,000  Level Salt Lake Center
Fri 04:09:00 PM 42.7664 -108.2375 72° East 525 604 37,000  Level Salt Lake Center
Fri 04:10:02 PM 42.8169 -108.0261 72° East 526 605 37,000  Level Salt Lake Center
Fri 04:11:04 PM 42.8589 -107.8453 72° East 524 603 37,000  Level Salt Lake Center
Fri 04:12:06 PM 42.9008 -107.6633 72° East 525 604 37,000  Level Salt Lake Center
Fri 04:13:08 PM 42.9475 -107.4525 73° East 521 600 37,000  Level Salt Lake Center
Fri 04:14:10 PM 42.9917 -107.2594 73° East 519 597 37,000  Level Salt Lake Center
Fri 04:14:31 PM 43.0042 -107.1978 74° East 518 596 37,000  Level Denver Center
Fri 04:15:12 PM 43.0319 -107.0778 72° East 521 600 37,000  Level Salt Lake Center
Fri 04:16:14 PM 43.0792 -106.8650 73° East 522 601 37,000  Level Salt Lake Center
Fri 04:16:34 PM 43.0919 -106.8033 74° East 522 601 37,000  Level Denver Center
Fri 04:17:36 PM 43.1319 -106.6208 73° East 523 602 37,000  Level Denver Center
Fri 04:18:38 PM 43.1764 -106.4078 74° East 521 600 37,000  Level Denver Center
Fri 04:19:40 PM 43.2161 -106.2247 73° East 523 602 37,000  Level Denver Center
Fri 04:20:42 PM 43.2614 -106.0128 74° East 519 597 37,000  Level Denver Center
Fri 04:21:44 PM 43.2994 -105.8311 74° East 517 595 37,000  Level Denver Center
Fri 04:22:46 PM 43.3433 -105.6167 74° East 521 600 37,000  Level Denver Center
Fri 04:23:48 PM 43.3808 -105.4344 74° East 519 597 37,000  Level Denver Center
Fri 04:24:50 PM 43.4183 -105.2511 74° East 519 597 37,000  Level Denver Center
Fri 04:25:52 PM 43.4617 -105.0361 74° East 520 598 37,000  Level Denver Center
Fri 04:26:54 PM 43.4983 -104.8517 75° East 520 598 37,000  Level Denver Center
Fri 04:27:56 PM 43.5411 -104.6356 75° East 521 600 37,000  Level Denver Center
Fri 04:28:58 PM 43.5769 -104.4522 75° East 519 597 37,000  Level Denver Center
Fri 04:30:00 PM 43.6183 -104.2375 75° East 518 596 37,000  Level Denver Center
Fri 04:31:02 PM 43.6547 -104.0567 74° East 514 592 37,000  Level Denver Center
Fri 04:32:04 PM 43.6897 -103.8700 75° East 520 598 37,000  Level Denver Center
Fri 04:33:06 PM 43.7308 -103.6503 75° East 526 605 37,000  Level Denver Center
Fri 04:34:08 PM 43.7669 -103.4608 75° East 531 611 37,000  Level Denver Center
Fri 04:35:10 PM 43.8078 -103.2411 75° East 530 610 37,000  Level Denver Center
Fri 04:36:12 PM 43.8419 -103.0514 76° East 531 611 37,000  Level Denver Center
Fri 04:37:14 PM 43.8808 -102.8289 76° East 531 611 37,000  Level Denver Center
Fri 04:38:16 PM 43.9164 -102.6258 76° East 529 609 37,000  Level Denver Center
Fri 04:39:18 PM 43.9503 -102.4269 77° East 529 609 37,000  Level Denver Center
Fri 04:40:20 PM 43.9800 -102.2275 78° East 528 608 37,000  Level Denver Center
Fri 04:41:22 PM 44.0139 -102.0294 77° East 529 609 37,000  Level Denver Center
Fri 04:42:24 PM 44.0481 -101.8311 76° East 529 609 37,000  Level Denver Center
Fri 04:43:26 PM 44.0922 -101.5994 75° East 520 598 37,000  Level Denver Center
Fri 04:44:28 PM 44.1211 -101.3967 79° East 532 612 37,000  Level Denver Center
Fri 04:45:25 PM 44.1486 -101.2408 76° East 527 606 37,000  Level Minneapolis Center
Fri 04:46:28 PM 44.1875 -101.0061 77° East 524 603 37,000  Level Minneapolis Center
Fri 04:47:30 PM 44.2192 -100.8081 77° East 524 603 37,000  Level Minneapolis Center
Fri 04:48:32 PM 44.2506 -100.6125 77° East 522 601 37,000  Level Minneapolis Center
Fri 04:49:34 PM 44.2819 -100.4158 77° East 522 601 37,000  Level Minneapolis Center
Fri 04:50:36 PM 44.3122 -100.2189 78° East 523 602 37,000  Level Minneapolis Center
Fri 04:51:38 PM 44.3481 -99.9825 78° East 523 602 37,000  Level Minneapolis Center
Fri 04:52:40 PM 44.3775 -99.7872 78° East 520 598 37,000  Level Minneapolis Center
Fri 04:53:42 PM 44.4067 -99.5897 78° East 522 601 37,000  Level Minneapolis Center
Fri 04:54:44 PM 44.4350 -99.3944 78° East 519 597 37,000  Level Minneapolis Center
Fri 04:55:46 PM 44.4650 -99.1997 78° East 517 595 37,000  Level Minneapolis Center
Fri 05:01:07 PM 44.6150 -98.1170 78° East 518 596 37,000  Level FlightAware ADS-B
Fri 05:01:55 PM 44.6350 -97.9730 79° East 519 597 37,000  Level FlightAware ADS-B
Fri 05:02:44 PM 44.6540 -97.8360 79° East 519 597 37,000  Level FlightAware ADS-B
Fri 05:03:29 PM 44.6770 -97.6460 80° East 522 601 37,000  Level FlightAware ADS-B
Fri 05:04:09 PM 44.6940 -97.5160 80° East 524 603 37,000  Level FlightAware ADS-B
Fri 05:04:51 PM 44.7130 -97.3700 80° East 524 603 37,000  Level FlightAware ADS-B
Fri 05:05:33 PM 44.7300 -97.2320 80° East 523 602 37,000  Level FlightAware ADS-B
Fri 05:06:17 PM 44.7490 -97.0830 80° East 522 601 37,000  Level FlightAware ADS-B
Fri 05:06:57 PM 44.7650 -96.9510 80° East 521 600 37,000  Level FlightAware ADS-B
Fri 05:07:37 PM 44.7810 -96.8220 80° East 521 600 37,000  Level FlightAware ADS-B
Fri 05:08:21 PM 44.7990 -96.6750 80° East 520 598 37,000  Level FlightAware ADS-B
Fri 05:09:03 PM 44.8160 -96.5320 80° East 515 593 37,000  Level FlightAware ADS-B
Fri 05:09:41 PM 44.8300 -96.4080 81° East 497 572 37,000  Level FlightAware ADS-B
Fri 05:10:55 PM 44.8570 -96.1800 80° East 482 555 37,000  Level FlightAware ADS-B
Fri 05:11:39 PM 44.8730 -96.0390 81° East 486 559 37,000  Level FlightAware ADS-B
Fri 05:12:17 PM 44.8860 -95.9230 81° East 488 562 37,000  Level FlightAware ADS-B
Fri 05:13:17 PM 44.9070 -95.7350 81° East 489 563 37,000  Level FlightAware ADS-B
Fri 05:13:53 PM 44.9200 -95.6210 81° East 490 564 37,000  Level FlightAware ADS-B
Fri 05:14:40 PM 44.9360 -95.4740 81° East 491 565 37,000  Level FlightAware ADS-B
Fri 05:15:22 PM 44.9510 -95.3400 81° East 491 565 37,000  Level FlightAware ADS-B
Fri 05:16:03 PM 44.9640 -95.2130 82° East 491 565 37,000  Level FlightAware ADS-B
Fri 05:16:42 PM 44.9780 -95.0880 81° East 491 565 37,000  Level FlightAware ADS-B
Fri 05:17:27 PM 44.9920 -94.9490 82° East 488 562 37,000  Level FlightAware ADS-B
Fri 05:18:07 PM 45.0060 -94.8170 81° East 486 559 37,000  Level FlightAware ADS-B
Fri 05:18:52 PM 45.0200 -94.6810 82° East 485 558 37,000  Level FlightAware ADS-B
Fri 05:19:27 PM 45.0310 -94.5690 82° East 484 557 37,000  Level FlightAware ADS-B
Fri 05:20:17 PM 45.0470 -94.4150 82° East 486 559 37,000  Level FlightAware ADS-B
Fri 05:21:00 PM 45.0610 -94.2770 82° East 487 560 37,000  Level FlightAware ADS-B
Fri 05:21:40 PM 45.0720 -94.1630 82° East 489 563 37,000  Level FlightAware ADS-B
Fri 05:22:23 PM 45.0860 -94.0150 82° East 492 566 37,000  Level FlightAware ADS-B
Fri 05:23:01 PM 45.0970 -93.8950 83° East 493 567 37,000  Level FlightAware ADS-B
Fri 05:23:47 PM 45.1110 -93.7470 82° East 494 568 37,000  Level FlightAware ADS-B
Fri 05:24:24 PM 45.1180 -93.6760 82° East 495 570 37,000 143 Level FlightAware ADS-B
Fri 05:25:11 PM 45.1360 -93.4830 82° East 495 570 37,200 366 Climbing FlightAware ADS-B
Fri 05:25:46 PM 45.1390 -93.4280 86° East 497 572 37,500 750 Climbing FlightAware ADS-B
Fri 05:26:07 PM 45.1210 -93.3020 101° East 495 570 37,900 536 Climbing FlightAware ADS-B
Fri 05:26:42 PM 45.0830 -93.2060 119° Southeast 490 564 38,000 79 Climbing FlightAware ADS-B
Fri 05:27:23 PM 45.0340 -93.1010 123° Southeast 495 570 38,000  Level FlightAware ADS-B
Fri 05:28:04 PM 44.9840 -92.9880 122° Southeast 498 573 38,000  Level FlightAware ADS-B
Fri 05:28:55 PM 44.9210 -92.8400 121° Southeast 501 577 38,000  Level FlightAware ADS-B
Fri 05:29:29 PM 44.8810 -92.7430 120° Southeast 505 581 38,000  Level FlightAware ADS-B
Fri 05:31:13 PM 44.7660 -92.4710 121° Southeast 513 590 38,000  Level FlightAware ADS-B
Fri 05:31:48 PM 44.7170 -92.3560 121° Southeast 514 592 38,000  Level FlightAware ADS-B
Fri 05:32:32 PM 44.6650 -92.2350 121° Southeast 517 595 38,000  Level FlightAware ADS-B
Fri 05:33:18 PM 44.6040 -92.0950 121° Southeast 520 598 38,000 539 Level FlightAware ADS-B
Fri 05:34:01 PM 44.5490 -91.9680 121° Southeast 517 595 38,800 723 Climbing FlightAware ADS-B
Fri 05:34:41 PM 44.4990 -91.8540 122° Southeast 517 595 39,000 152 Climbing FlightAware ADS-B
Fri 05:35:20 PM 44.4510 -91.7450 122° Southeast 517 595 39,000  Level FlightAware ADS-B
Fri 05:36:09 PM 44.3890 -91.6020 121° Southeast 516 594 39,000  Level FlightAware ADS-B
Fri 05:36:51 PM 44.3350 -91.4820 122° Southeast 517 595 39,000  Level FlightAware ADS-B
Fri 05:37:30 PM 44.2870 -91.3740 122° Southeast 518 596 39,000  Level FlightAware ADS-B
Fri 05:38:11 PM 44.2340 -91.2550 122° Southeast 519 597 39,000  Level FlightAware ADS-B
Fri 05:38:57 PM 44.1760 -91.1240 122° Southeast 520 598 39,000  Level FlightAware ADS-B
Fri 05:39:37 PM 44.1260 -91.0130 122° Southeast 521 600 39,000  Level FlightAware ADS-B
Fri 05:40:49 PM 44.0380 -90.8190 122° Southeast 523 602 39,000  Level FlightAware ADS-B
Fri 05:41:29 PM 43.9820 -90.6960 122° Southeast 525 604 39,000  Level FlightAware ADS-B
Fri 05:42:11 PM 43.9270 -90.5750 122° Southeast 526 605 39,000  Level FlightAware ADS-B
Fri 05:42:55 PM 43.8710 -90.4520 122° Southeast 528 608 39,000  Level FlightAware ADS-B
Fri 05:43:37 PM 43.8160 -90.3330 123° Southeast 529 609 39,000  Level FlightAware ADS-B
Fri 05:44:19 PM 43.7590 -90.2100 123° Southeast 531 611 39,000  Level FlightAware ADS-B
Fri 05:44:59 PM 43.7080 -90.1000 123° Southeast 532 612 39,000  Level FlightAware ADS-B
Fri 05:45:55 PM 43.6600 -89.9960 123° Southeast 533 613 39,000  Level FlightAware ADS-B
Fri 05:46:38 PM 43.5750 -89.8130 123° Southeast 535 616 39,000  Level FlightAware ADS-B
Fri 05:47:21 PM 43.5410 -89.6990 112° Southeast 534 615 39,000  Level FlightAware ADS-B
Fri 05:48:00 PM 43.5130 -89.5490 104° East 525 604 39,000  Level FlightAware ADS-B
Fri 05:48:45 PM 43.4890 -89.4050 103° East 520 598 39,000  Level FlightAware ADS-B
Fri 05:49:27 PM 43.4660 -89.2710 103° East 516 594 39,000  Level FlightAware ADS-B
Fri 05:50:06 PM 43.4450 -89.1500 103° East 515 593 39,000  Level FlightAware ADS-B
Fri 05:50:51 PM 43.4200 -89.0030 103° East 526 605 39,000  Level FlightAware ADS-B
Fri 05:51:27 PM 43.4000 -88.8890 104° East 529 609 39,000  Level FlightAware ADS-B
Fri 05:52:10 PM 43.3730 -88.7410 104° East 535 616 39,000  Level FlightAware ADS-B
Fri 05:52:56 PM 43.3460 -88.5880 104° East 540 621 39,000  Level FlightAware ADS-B
Fri 05:53:39 PM 43.3200 -88.4470 104° East 543 625 39,000  Level FlightAware ADS-B
Fri 05:54:13 PM 43.2990 -88.3330 104° East 544 626 39,000  Level FlightAware ADS-B
Fri 05:55:02 PM 43.2690 -88.1680 104° East 545 627 39,000  Level FlightAware ADS-B
Fri 05:55:46 PM 43.2420 -88.0230 104° East 545 627 39,000  Level FlightAware ADS-B
Fri 05:56:21 PM 43.2230 -87.9170 104° East 544 626 39,000  Level FlightAware ADS-B
Fri 05:57:08 PM 43.1910 -87.7510 105° East 544 626 39,000  Level FlightAware ADS-B
Fri 05:57:52 PM 43.1640 -87.6060 104° East 543 625 39,000  Level FlightAware ADS-B
Fri 05:58:31 PM 43.1390 -87.4770 105° East 541 623 39,000  Level FlightAware ADS-B
Fri 05:59:16 PM 43.1100 -87.3240 105° East 540 621 39,000  Level FlightAware ADS-B
Fri 05:59:56 PM 43.0840 -87.1910 105° East 539 620 39,000  Level FlightAware ADS-B
Fri 06:00:49 PM 43.0510 -87.0210 105° East 539 620 39,000  Level FlightAware ADS-B
Fri 06:01:50 PM 43.0140 -86.8340 105° East 537 618 39,000  Level FlightAware ADS-B
Fri 06:02:30 PM 42.9910 -86.7180 105° East 536 617 39,000  Level FlightAware ADS-B
Fri 06:03:08 PM 42.9610 -86.5680 105° East 534 615 39,000  Level FlightAware ADS-B
Fri 06:03:55 PM 42.9300 -86.4130 105° East 534 615 39,000  Level FlightAware ADS-B
Fri 06:04:37 PM 42.9020 -86.2750 105° East 535 616 39,000  Level FlightAware ADS-B
Fri 06:05:33 PM 42.8660 -86.0960 105° East 534 615 39,000  Level FlightAware ADS-B
Fri 06:06:09 PM 42.8420 -85.9790 106° East 534 615 39,000  Level FlightAware ADS-B
Fri 06:07:00 PM 42.8080 -85.8140 106° East 535 616 39,000  Level FlightAware ADS-B
Fri 06:07:40 PM 42.7800 -85.6830 106° East 535 616 39,000  Level FlightAware ADS-B
Fri 06:08:22 PM 42.7520 -85.5500 106° East 534 615 39,000  Level FlightAware ADS-B
Fri 06:09:02 PM 42.7250 -85.4190 106° East 533 613 39,000  Level FlightAware ADS-B
Fri 06:09:40 PM 42.6990 -85.2990 106° East 532 612 39,000  Level FlightAware ADS-B
Fri 06:10:42 PM 42.6640 -85.0980 103° East 524 603 39,000  Level FlightAware ADS-B
Fri 06:11:34 PM 42.6450 -84.9310 99° East 521 600 39,000  Level FlightAware ADS-B
Fri 06:12:14 PM 42.6310 -84.8020 98° East 519 597 39,000  Level FlightAware ADS-B
Fri 06:12:58 PM 42.6150 -84.6580 99° East 518 596 39,000  Level FlightAware ADS-B
Fri 06:13:37 PM 42.6030 -84.5450 98° East 517 595 39,000  Level FlightAware ADS-B
Fri 06:14:22 PM 42.5860 -84.4010 99° East 517 595 39,000  Level FlightAware ADS-B
Fri 06:15:04 PM 42.5710 -84.2650 98° East 516 594 39,000  Level FlightAware ADS-B
Fri 06:15:59 PM 42.5520 -84.1050 99° East 516 594 39,000  Level FlightAware ADS-B
Fri 06:16:40 PM 42.5340 -83.9510 99° East 515 593 39,000  Level FlightAware ADS-B
Fri 06:17:22 PM 42.5180 -83.8210 99° East 515 593 39,000  Level FlightAware ADS-B
Fri 06:18:06 PM 42.5010 -83.6770 99° East 517 595 39,000  Level FlightAware ADS-B
Fri 06:18:47 PM 42.4860 -83.5500 99° East 516 594 39,000  Level FlightAware ADS-B
Fri 06:19:28 PM 42.4690 -83.4160 100° East 517 595 39,000  Level FlightAware ADS-B
Fri 06:20:09 PM 42.4530 -83.2860 99° East 517 595 39,000  Level FlightAware ADS-B
Fri 06:20:53 PM 42.4360 -83.1480 99° East 517 595 39,000  Level FlightAware ADS-B
Fri 06:21:36 PM 42.4180 -83.0100 100° East 517 595 39,000  Level FlightAware ADS-B
Fri 06:22:17 PM 42.4020 -82.8810 99° East 514 592 39,000  Level FlightAware ADS-B
Fri 06:22:56 PM 42.3860 -82.7580 100° East 511 588 39,000  Level FlightAware ADS-B
Fri 06:23:41 PM 42.3760 -82.6160 95° East 504 580 39,000  Level FlightAware ADS-B
Fri 06:24:18 PM 42.3710 -82.5000 93° East 502 578 39,000  Level FlightAware ADS-B
Fri 06:25:07 PM 42.3650 -82.3500 93° East 498 573 39,000  Level FlightAware ADS-B
Fri 06:25:49 PM 42.3600 -82.2200 93° East 498 573 39,000  Level FlightAware ADS-B
Fri 06:26:51 PM 42.3530 -82.0270 93° East 495 570 39,000  Level FlightAware ADS-B
Fri 06:27:39 PM 42.3540 -81.8960 89° East 492 566 39,000  Level FlightAware ADS-B
Fri 06:28:30 PM 42.3590 -81.7420 87° East 489 563 39,000  Level FlightAware ADS-B
Fri 06:29:16 PM 42.3660 -81.5820 87° East 488 562 39,000  Level FlightAware ADS-B
Fri 06:29:55 PM 42.3700 -81.4690 87° East 489 563 39,000  Level FlightAware ADS-B
Fri 06:30:51 PM 42.3640 -81.3120 93° East 498 573 39,000  Level FlightAware ADS-B
Fri 06:31:29 PM 42.3500 -81.1980 99° East 501 577 39,000  Level FlightAware ADS-B
Fri 06:32:12 PM 42.3330 -81.0620 100° East 500 575 39,000  Level FlightAware ADS-B
Fri 06:32:53 PM 42.3170 -80.9330 99° East 499 574 39,000  Level FlightAware ADS-B
Fri 06:33:36 PM 42.3000 -80.8020 100° East 496 571 39,000  Level FlightAware ADS-B
Fri 06:34:14 PM 42.2840 -80.6880 101° East 494 568 39,000  Level FlightAware ADS-B
Fri 06:35:00 PM 42.2650 -80.5450 100° East 493 567 39,000  Level FlightAware ADS-B
Fri 06:35:56 PM 42.2400 -80.3600 100° East 490 564 39,000  Level FlightAware ADS-B
Fri 06:36:41 PM 42.2220 -80.2280 100° East 489 563 39,000  Level FlightAware ADS-B
Fri 06:37:21 PM 42.2060 -80.1150 101° East 489 563 39,000  Level FlightAware ADS-B
Fri 06:38:01 PM 42.1880 -79.9900 101° East 487 560 39,000  Level FlightAware ADS-B
Fri 06:38:42 PM 42.1710 -79.8690 101° East 486 559 39,000  Level FlightAware ADS-B
Fri 06:39:27 PM 42.1520 -79.7350 101° East 486 559 39,000  Level FlightAware ADS-B
Fri 06:40:22 PM 42.1280 -79.5700 101° East 487 560 39,000  Level FlightAware ADS-B
Fri 06:41:08 PM 42.1090 -79.4370 101° East 487 560 39,000  Level FlightAware ADS-B
Fri 06:41:47 PM 42.0930 -79.3310 101° East 488 562 39,000  Level FlightAware ADS-B
Fri 06:42:32 PM 42.0710 -79.1840 101° East 489 563 39,000  Level FlightAware ADS-B
Fri 06:43:12 PM 42.0540 -79.0660 101° East 489 563 39,000  Level FlightAware ADS-B
Fri 06:43:52 PM 42.0360 -78.9460 101° East 490 564 39,000  Level FlightAware ADS-B
Fri 06:44:37 PM 42.0150 -78.8120 102° East 491 565 39,000  Level FlightAware ADS-B
Fri 06:45:12 PM 42.0000 -78.7080 101° East 492 566 39,000  Level FlightAware ADS-B
Fri 06:46:03 PM 41.9750 -78.5510 102° East 495 570 39,000  Level FlightAware ADS-B
Fri 06:46:41 PM 41.9570 -78.4340 102° East 497 572 39,000  Level FlightAware ADS-B
Fri 06:47:25 PM 41.9370 -78.3050 102° East 499 574 39,000  Level FlightAware ADS-B
Fri 06:48:05 PM 41.9180 -78.1830 102° East 500 575 39,000  Level FlightAware ADS-B
Fri 06:48:48 PM 41.8970 -78.0520 102° East 497 572 39,000  Level FlightAware ADS-B
Fri 06:49:32 PM 41.8760 -77.9240 102° East 496 571 39,000  Level FlightAware ADS-B
Fri 06:50:15 PM 41.8490 -77.7910 105° East 498 573 39,000  Level FlightAware ADS-B
Fri 06:50:55 PM 41.8190 -77.6770 109° East 496 571 39,000  Level FlightAware ADS-B
Fri 06:51:51 PM 41.7760 -77.5140 109° East 495 570 39,000  Level FlightAware ADS-B
Fri 06:52:27 PM 41.7490 -77.4110 109° East 494 568 39,000  Level FlightAware ADS-B
Fri 06:53:13 PM 41.7140 -77.2820 110° East 494 568 39,000  Level FlightAware ADS-B
Fri 06:53:55 PM 41.6870 -77.1810 110° East 495 570 39,000  Level FlightAware ADS-B
Fri 06:54:39 PM 41.6457 -77.0293 110° East 496 571 39,000  Level FlightAware ADS-B
Fri 06:55:16 PM 41.6168 -76.9228 110° East 498 573 39,000  Level FlightAware ADS-B
Fri 06:55:50 PM 41.5907 -76.8269 110° East 499 574 39,000  Level FlightAware ADS-B
Fri 06:56:22 PM 41.5652 -76.7336 110° East 501 577 39,000  Level FlightAware ADS-B
Fri 06:56:52 PM 41.5408 -76.6448 110° East 503 579 39,000  Level FlightAware ADS-B
Fri 06:57:22 PM 41.5166 -76.5572 110° East 504 580 39,000 -194 Level FlightAware ADS-B
Fri 06:57:54 PM 41.4909 -76.4641 110° East 505 581 38,800 -818 Descending FlightAware ADS-B
Fri 06:58:28 PM 41.4640 -76.3675 110° East 506 582 38,100 -1,031 Descending FlightAware ADS-B
Fri 06:58:58 PM 41.4392 -76.2788 110° East 504 580 37,700 -783 Descending FlightAware ADS-B
Fri 06:59:37 PM 41.4081 -76.1680 110° East 499 574 37,200 -1,247 Descending FlightAware ADS-B
Fri 07:00:15 PM 41.3774 -76.0583 110° East 505 581 36,100 -2,219 Descending FlightAware ADS-B
Fri 07:00:50 PM 41.3489 -75.9568 110° East 505 581 34,500 -2,866 Descending FlightAware ADS-B
Fri 07:01:22 PM 41.3220 -75.8618 111° Southeast 504 580 32,900 -2,857 Descending FlightAware ADS-B
Fri 07:01:53 PM 41.2973 -75.7747 111° Southeast 499 574 31,500 -2,903 Descending FlightAware ADS-B
Fri 07:02:24 PM 41.2708 -75.6858 112° Southeast 497 572 29,900 -3,238 Descending FlightAware ADS-B
Fri 07:02:56 PM 41.2420 -75.5966 113° Southeast 496 571 28,100 -3,429 Descending FlightAware ADS-B
Fri 07:03:27 PM 41.2137 -75.5112 114° Southeast 494 568 26,300 -3,290 Descending FlightAware ADS-B
Fri 07:03:58 PM 41.1848 -75.4253 114° Southeast 486 559 24,700 -2,852 Descending FlightAware ADS-B
Fri 07:04:28 PM 41.1571 -75.3434 114° Southeast 477 549 23,400 -1,645 Descending FlightAware ADS-B
Fri 07:05:00 PM 41.1288 -75.2600 114° Southeast 472 543 23,000 -375 Descending FlightAware ADS-B
Fri 07:05:32 PM 41.1001 -75.1751 114° Southeast 469 540 23,000  Level FlightAware ADS-B
Fri 07:06:03 PM 41.0731 -75.0954 114° Southeast 473 544 23,000  Level FlightAware ADS-B
Fri 07:06:33 PM 41.0461 -75.0160 114° Southeast 473 544 23,000  Level FlightAware ADS-B
Fri 07:07:04 PM 41.0178 -74.9329 114° Southeast 473 544 23,000  Level FlightAware ADS-B
Fri 07:07:19 PM 41.0059 -74.8942 112° Southeast 471 542 23,000 -529 Level FlightAware ADS-B
Fri 07:07:38 PM 40.9942 -74.8417 106° East 470 541 22,700 -1,440 Descending FlightAware ADS-B
Fri 07:08:09 PM 40.9826 -74.7540 100° East 478 550 21,800 -1,475 Descending FlightAware ADS-B
Fri 07:08:39 PM 40.9732 -74.6651 98° East 477 549 21,200 -1,082 Descending FlightAware ADS-B
Fri 07:09:10 PM 40.9641 -74.5778 98° East 476 548 20,700 -1,548 Descending FlightAware ADS-B
Fri 07:09:41 PM 40.9546 -74.4884 98° East 466 536 19,600 -1,645 Descending FlightAware ADS-B
Fri 07:10:12 PM 40.9450 -74.4015 98° East 455 524 19,000 -706 Descending FlightAware ADS-B
Fri 07:10:32 PM 40.9389 -74.3475 98° East 454 522 19,000  Level FlightAware ADS-B
Fri 07:10:44 PM 40.9333 -74.3159 103° East 460 529 19,000  Level FlightAware ADS-B
Fri 07:10:59 PM 40.9216 -74.2765 111° Southeast 453 521 19,000  Level FlightAware ADS-B
Fri 07:11:11 PM 40.9087 -74.2472 120° Southeast 440 506 19,000  Level FlightAware ADS-B
Fri 07:11:24 PM 40.8934 -74.2216 128° Southeast 429 494 19,000  Level FlightAware ADS-B
Fri 07:11:30 PM 40.8846 -74.2098 135° Southeast 420 483 19,000  Level FlightAware ADS-B
Fri 07:11:39 PM 40.8717 -74.1954 140° Southeast 410 472 19,000  Level FlightAware ADS-B
Fri 07:12:09 PM 40.8259 -74.1556 147° Southeast 377 434 19,000  Level FlightAware ADS-B
Fri 07:12:26 PM 40.8008 -74.1359 149° Southeast 364 419 19,000 -214 Level FlightAware ADS-B
Fri 07:12:37 PM 40.7847 -74.1279 159° South 361 415 18,900 -857 Descending FlightAware ADS-B
Fri 07:12:47 PM 40.7675 -74.1220 165° South 358 412 18,700 -1,313 Descending FlightAware ADS-B
Fri 07:13:09 PM 40.7326 -74.1115 167° South 356 410 18,200 -1,355 Descending FlightAware ADS-B
Fri 07:13:18 PM 40.7186 -74.1075 168° South 355 409 18,000 -1,429 Descending FlightAware ADS-B
Fri 07:13:30 PM 40.6988 -74.1003 165° South 351 404 17,700 -1,667 Descending FlightAware ADS-B
Fri 07:13:36 PM 40.6901 -74.0962 160° South 351 404 17,500 -1,588 Descending FlightAware ADS-B
Fri 07:14:04 PM 40.6483 -74.0749 159° South 347 399 16,800 -1,525 Descending FlightAware ADS-B
Fri 07:14:35 PM 40.6023 -74.0507 158° South 344 396 16,000 -1,429 Descending FlightAware ADS-B
Fri 07:15:07 PM 40.5559 -74.0262 158° South 339 390 15,300 -1,313 Descending FlightAware ADS-B
Fri 07:15:39 PM 40.5082 -74.0011 158° South 337 388 14,600 -1,714 Descending FlightAware ADS-B
Fri 07:16:10 PM 40.4633 -73.9775 158° South 333 383 13,500 -2,419 Descending FlightAware ADS-B
Fri 07:16:41 PM 40.4199 -73.9545 158° South 334 384 12,100 -2,586 Descending FlightAware ADS-B
Fri 07:17:08 PM 40.3809 -73.9338 158° South 330 380 11,000 -2,294 Descending FlightAware ADS-B
Fri 07:17:15 PM 40.3722 -73.9271 150° Southeast 327 376 10,800 -2,143 Descending FlightAware ADS-B
Fri 07:17:36 PM 40.3475 -73.9017 142° Southeast 318 366 10,000 -2,333 Descending FlightAware ADS-B
Fri 07:17:51 PM 40.3304 -73.8834 141° Southeast 315 362 9,400 -2,438 Descending FlightAware ADS-B
Fri 07:18:08 PM 40.3120 -73.8636 141° Southeast 313 360 8,700 -2,250 Descending FlightAware ADS-B
Fri 07:18:23 PM 40.2952 -73.8452 140° Southeast 309 356 8,200 -1,935 Descending FlightAware ADS-B
Fri 07:18:39 PM 40.2779 -73.8263 140° Southeast 297 342 7,700 -1,935 Descending FlightAware ADS-B
Fri 07:18:54 PM 40.2622 -73.8088 140° Southeast 292 336 7,200 -2,167 Descending FlightAware ADS-B
Fri 07:19:15 PM 40.2458 -73.7803 127° Southeast 283 326 6,400 -2,333 Descending FlightAware ADS-B
Fri 07:19:48 PM 40.2522 -73.7294 81° East 263 303 5,100 -1,380 Descending FlightAware ADS-B
Fri 07:20:55 PM 40.3120 -73.6610 41° Northeast 261 300 4,100 -732 Descending FlightAware ADS-B
Fri 07:21:10 PM 40.3270 -73.6440 41° Northeast 263 303 4,100  Level FlightAware ADS-B
Fri 07:22:00 PM 40.3738 -73.5936 39° Northeast 264 304 4,100  Level FlightAware ADS-B
Fri 07:22:51 PM 40.4220 -73.5410 40° Northeast 264 304 4,100  Level FlightAware ADS-B
Fri 07:23:18 PM 40.4480 -73.5150 37° Northeast 256 295 4,100  Level FlightAware ADS-B
Fri 07:23:46 PM 40.4750 -73.4940 31° Northeast 227 261 4,100  Level FlightAware ADS-B
Fri 07:24:02 PM 40.4910 -73.4880 16° North 219 252 4,100  Level FlightAware ADS-B
Fri 07:24:29 PM 40.5160 -73.4820 10° North 215 247 4,100  Level FlightAware ADS-B
Fri 07:24:55 PM 40.5430 -73.4760 10° North 220 253 4,100  Level FlightAware ADS-B
Fri 07:25:07 PM 40.5540 -73.4740 North 221 254 4,100  Level FlightAware ADS-B
Fri 07:25:38 PM 40.5860 -73.4670 North 218 251 4,100  Level FlightAware ADS-B
Fri 07:26:07 PM 40.6150 -73.4610 North 220 253 4,100  Level FlightAware ADS-B
Fri 07:26:30 PM 40.6380 -73.4570 North 218 251 4,100  Level FlightAware ADS-B
Fri 07:27:16 PM 40.6840 -73.4480 North 218 251 4,100  Level FlightAware ADS-B
Fri 07:27:36 PM 40.7040 -73.4440 North 219 252 4,100  Level FlightAware ADS-B
Fri 07:28:07 PM 40.7340 -73.4460 357° North 199 229 4,100  Level FlightAware ADS-B
Fri 07:28:36 PM 40.7570 -73.4530 347° North 177 204 4,100  Level FlightAware ADS-B
Fri 07:28:56 PM 40.7740 -73.4580 347° North 177 204 4,100  Level FlightAware ADS-B
Fri 07:29:23 PM 40.7960 -73.4640 348° North 178 205 4,100  Level FlightAware ADS-B
Fri 07:29:47 PM 40.8150 -73.4680 351° North 178 205 4,100  Level FlightAware ADS-B
Fri 07:30:11 PM 40.8330 -73.4750 344° North 175 201 4,100 -500 Level FlightAware ADS-B
Fri 07:30:59 PM 40.8340 -73.5240 272° West 185 213 3,500 -789 Descending FlightAware ADS-B
Fri 07:31:27 PM 40.8240 -73.5530 246° West 188 216 3,100 -964 Descending FlightAware ADS-B
Fri 07:31:55 PM 40.8090 -73.5790 233° Southwest 187 215 2,600 -931 Descending FlightAware ADS-B
Fri 07:32:25 PM 40.7940 -73.6060 234° Southwest 182 209 2,200 -556 Descending FlightAware ADS-B
Fri 07:32:49 PM 40.7820 -73.6270 233° Southwest 179 206 2,100 -113 Descending FlightAware ADS-B
Fri 07:33:18 PM 40.7680 -73.6530 235° Southwest 182 209 2,100  Level FlightAware ADS-B
Fri 07:33:46 PM 40.7490 -73.6730 219° Southwest 184 212 2,100 -102 Level FlightAware ADS-B
Fri 07:34:17 PM 40.7270 -73.6910 212° Southwest 184 212 2,000 -545 Descending FlightAware ADS-B
Fri 07:34:41 PM 40.7100 -73.7040 210° Southwest 166 191 1,600 -1,000 Descending FlightAware ADS-B
Fri 07:34:59 PM 40.6980 -73.7130 210° Southwest 148 170 1,300 -750 Descending FlightAware ADS-B
Fri 07:35:21 PM 40.6890 -73.7210 214° Southwest 133 153 1,100 -655 Descending FlightAware ADS-B
Fri 07:35:54 PM 40.6700 -73.7360 211° Southwest 128 147 700 -667 Descending FlightAware ADS-B
Fri 07:36:24 PM 40.6540 -73.7480 210° Southwest 126 145 400 -679 Descending FlightAware ADS-B
Fri 07:36:47 PM 40.6430 -73.7570 212° Southwest 130 150 100 -783 Descending FlightAware ADS-B

Login

Don't have an account? Register now (free) for customized features, flight alerts, and more!